Time;durP1;ratioP1;P1;durP2;ratioP2;P2;SDS_P1;SDS_P2;PMS_P1;PMS_P2;Temp;Humidity;BMP_temperature;BMP_pressure;BME280_temperature;BME280_humidity;BME280_pressure;Samples;Min_cycle;Max_cycle;Signal;HPM_P1;HPM_P2
2022/04/16 00:01:38;;;;;;;20.58;14.40;;;;;;;8.20;74.98;102974.53;5028148;28;20799;-54
2022/04/16 00:04:03;;;;;;;21.02;14.00;;;;;;;8.13;74.92;102965.28;5012461;28;20105;-54
2022/04/16 00:06:29;;;;;;;19.55;13.85;;;;;;;8.18;74.74;102970.28;5011928;28;20084;-55
2022/04/16 00:08:54;;;;;;;19.42;13.95;;;;;;;8.14;75.08;102971.41;5012473;28;20350;-54
2022/04/16 00:11:19;;;;;;;18.42;14.00;;;;;;;8.14;75.11;102972.25;5012722;28;20044;-55
2022/04/16 00:13:46;;;;;;;19.90;14.10;;;;;;;8.06;75.04;102966.59;5012158;28;20637;-55
2022/04/16 00:16:11;;;;;;;17.80;13.32;;;;;;;8.07;75.30;102963.88;5011603;28;20026;-55
2022/04/16 00:18:36;;;;;;;19.30;14.95;;;;;;;8.06;75.03;102969.22;5012060;28;20064;-56
2022/04/16 00:21:04;;;;;;;19.48;14.38;;;;;;;7.99;75.34;102978.47;5011993;28;20034;-56
2022/04/16 00:23:30;;;;;;;17.50;13.57;;;;;;;7.97;75.69;102967.13;5011324;28;20439;-56
2022/04/16 00:25:56;;;;;;;21.52;14.55;;;;;;;7.98;75.90;102971.50;5007684;28;20445;-55
2022/04/16 00:28:22;;;;;;;20.77;14.57;;;;;;;7.97;75.76;102972.41;5014528;28;20029;-56
2022/04/16 00:30:47;;;;;;;19.48;14.32;;;;;;;7.96;75.76;102970.72;5012793;28;20038;-55
2022/04/16 00:33:12;;;;;;;20.45;14.25;;;;;;;7.94;75.90;102976.09;5012082;28;20026;-54
2022/04/16 00:35:39;;;;;;;20.10;14.63;;;;;;;7.93;76.19;102975.25;5010793;28;20022;-56
2022/04/16 00:38:05;;;;;;;20.17;14.98;;;;;;;7.92;75.81;102977.97;5012123;28;20017;-56
2022/04/16 00:40:30;;;;;;;20.52;14.73;;;;;;;7.88;76.34;102981.72;5010335;28;20502;-54
2022/04/16 00:42:57;;;;;;;20.25;14.90;;;;;;;7.82;77.16;102975.03;5011504;28;20030;-54
2022/04/16 00:45:23;;;;;;;20.15;15.15;;;;;;;7.80;76.71;102969.84;5012229;28;20030;-55
2022/04/16 00:47:48;;;;;;;21.35;15.07;;;;;;;7.77;76.88;102980.59;5012473;28;20431;-55
2022/04/16 00:50:13;;;;;;;20.40;15.55;;;;;;;7.75;77.52;102984.25;5010684;28;20028;-56
2022/04/16 00:52:40;;;;;;;21.23;15.65;;;;;;;7.73;76.83;102983.47;5011243;28;20041;-56
2022/04/16 00:55:08;;;;;;;21.88;16.17;;;;;;;7.70;77.09;102978.41;5011838;28;20071;-55
2022/04/16 00:57:34;;;;;;;21.33;15.32;;;;;;;7.66;77.69;102978.56;5010669;28;20033;-56
2022/04/16 01:00:00;;;;;;;21.25;16.10;;;;;;;7.62;77.87;102982.34;5010943;28;20026;-55
2022/04/16 01:02:26;;;;;;;21.20;15.60;;;;;;;7.65;77.38;102971.59;5011781;28;20022;-54
2022/04/16 01:04:51;;;;;;;24.08;17.30;;;;;;;7.65;77.38;102978.66;5011774;28;20104;-56
2022/04/16 01:07:24;;;;;;;22.48;16.88;;;;;;;7.62;77.84;102971.78;5012382;28;20030;-56
2022/04/16 01:09:49;;;;;;;21.17;16.63;;;;;;;7.62;77.58;102982.34;5010975;28;20332;-55
2022/04/16 01:12:14;;;;;;;23.30;17.10;;;;;;;7.59;77.76;102985.16;5012428;28;20036;-55
2022/04/16 01:14:40;;;;;;;21.48;16.55;;;;;;;7.57;78.13;102984.38;5011213;28;20034;-55
2022/04/16 01:17:05;;;;;;;23.60;17.27;;;;;;;7.57;78.45;102983.53;5011956;28;20097;-55
2022/04/16 01:19:30;;;;;;;24.83;17.98;;;;;;;7.54;77.99;102981.91;5010551;28;20489;-55
2022/04/16 01:21:56;;;;;;;24.38;17.00;;;;;;;7.52;78.17;102981.16;5011218;28;20034;-54
2022/04/16 01:24:21;;;;;;;25.63;18.27;;;;;;;7.48;78.60;102987.53;5012083;28;20033;-54
2022/04/16 01:26:46;;;;;;;25.25;17.23;;;;;;;7.48;77.98;102984.91;5006143;28;20030;-57
2022/04/16 01:29:12;;;;;;;23.10;17.63;;;;;;;7.44;78.60;102983.41;5011033;28;20030;-55
2022/04/16 01:31:37;;;;;;;25.42;17.73;;;;;;;7.40;78.61;102983.56;5010833;28;20484;-56
2022/04/16 01:34:03;;;;;;;24.58;18.30;;;;;;;7.46;78.70;102984.16;5010753;28;20033;-56
2022/04/16 01:36:30;;;;;;;26.05;17.98;;;;;;;7.35;78.78;102995.34;5013654;28;20060;-56
2022/04/16 01:38:57;;;;;;;23.15;17.45;;;;;;;7.36;79.24;102997.88;5014637;28;20038;-55
2022/04/16 01:41:25;;;;;;;24.42;18.70;;;;;;;7.30;79.48;103003.50;5014875;28;20056;-55
2022/04/16 01:43:51;;;;;;;27.58;18.40;;;;;;;7.35;79.61;103003.25;5015061;28;20104;-55
2022/04/16 01:46:17;;;;;;;23.10;18.55;;;;;;;7.32;79.32;103001.63;5014494;28;20033;-54
2022/04/16 01:48:42;;;;;;;25.23;18.25;;;;;;;7.31;79.29;102999.06;5014115;28;20034;-54
2022/04/16 01:51:08;;;;;;;26.30;18.27;;;;;;;7.25;79.40;103008.16;5015355;28;20530;-55
2022/04/16 01:53:34;;;;;;;26.08;18.80;;;;;;;7.25;79.89;103000.25;5015142;28;20025;-54
2022/04/16 01:55:59;;;;;;;23.13;18.13;;;;;;;7.22;79.79;103000.44;5015084;28;20480;-56
2022/04/16 01:58:25;;;;;;;25.52;18.23;;;;;;;7.18;79.54;102993.63;5014997;28;20038;-53
2022/04/16 02:00:50;;;;;;;24.83;19.45;;;;;;;7.20;80.31;103002.31;5010113;28;20516;-56
2022/04/16 02:03:19;;;;;;;23.77;18.33;;;;;;;7.17;80.03;102991.94;5010639;28;20044;-55
2022/04/16 02:05:45;;;;;;;26.42;18.95;;;;;;;7.16;79.87;102995.50;5014590;28;20105;-55
2022/04/16 02:08:10;;;;;;;27.33;18.95;;;;;;;7.11;80.00;102998.41;5014291;28;20583;-56
2022/04/16 02:10:35;;;;;;;26.13;18.50;;;;;;;7.06;80.29;102996.00;5014360;28;20033;-56
2022/04/16 02:13:01;;;;;;;27.27;19.00;;;;;;;7.05;80.58;102999.59;5014282;28;20080;-56
2022/04/16 02:15:27;;;;;;;26.02;19.02;;;;;;;7.07;80.55;103003.00;5014603;28;20084;-54
2022/04/16 02:17:56;;;;;;;26.80;19.17;;;;;;;7.06;80.50;103001.28;5014142;28;20070;-55
2022/04/16 02:20:23;;;;;;;26.58;18.98;;;;;;;7.06;80.49;103003.91;5013971;28;20032;-55
2022/04/16 02:22:48;;;;;;;27.35;18.83;;;;;;;7.07;80.78;103013.56;5014523;28;20498;-55
2022/04/16 02:25:20;;;;;;;26.05;18.85;;;;;;;6.99;80.43;102995.50;5005110;28;20022;-55
2022/04/16 02:27:45;;;;;;;25.88;19.00;;;;;;;7.03;80.58;103005.88;5008420;28;20044;-55
2022/04/16 02:30:12;;;;;;;25.15;19.08;;;;;;;7.00;80.94;103002.47;5011294;28;20112;-55
2022/04/16 02:32:44;;;;;;;28.02;19.50;;;;;;;6.96;81.02;103005.38;5012700;28;20100;-55
2022/04/16 02:35:10;;;;;;;25.35;18.85;;;;;;;6.98;81.13;103014.91;5012876;28;20052;-56
2022/04/16 02:37:36;;;;;;;26.13;19.00;;;;;;;6.96;80.84;103010.66;5013565;28;20044;-55
2022/04/16 02:40:03;;;;;;;26.95;19.42;;;;;;;6.88;81.28;103015.47;5013402;28;20030;-53
2022/04/16 02:42:28;;;;;;;27.30;19.75;;;;;;;6.90;80.87;103021.53;5014053;28;20507;-55
2022/04/16 02:47:37;;;;;;;28.10;19.40;;;;;;;6.84;81.09;103020.94;5014083;28;20036;-55
2022/04/16 02:50:02;;;;;;;25.17;19.20;;;;;;;6.79;81.22;103015.06;5014009;28;20104;-56
2022/04/16 02:52:31;;;;;;;25.60;18.80;;;;;;;6.68;81.70;103006.88;5013695;28;20061;-56
2022/04/16 02:54:57;;;;;;;25.95;19.48;;;;;;;6.72;81.51;103008.41;5013560;28;20022;-55
2022/04/16 02:57:22;;;;;;;26.05;19.27;;;;;;;6.72;81.23;103016.31;5013207;28;20113;-55
2022/04/16 02:59:47;;;;;;;27.63;18.73;;;;;;;6.72;81.87;103014.53;5028673;28;20053;-55
2022/04/16 03:02:13;;;;;;;26.83;19.77;;;;;;;6.68;81.75;103022.69;5013481;28;20384;-56
2022/04/16 03:04:39;;;;;;;27.55;19.52;;;;;;;6.64;82.14;103021.13;5013712;28;20057;-55
2022/04/16 03:07:04;;;;;;;26.05;19.40;;;;;;;6.65;81.58;103020.22;5013915;28;20096;-54
2022/04/16 03:09:30;;;;;;;24.73;19.17;;;;;;;6.66;81.95;103025.41;5011831;28;20424;-56
2022/04/16 03:11:55;;;;;;;24.85;20.25;;;;;;;6.59;82.07;103024.03;5013568;28;20041;-54
2022/04/16 03:19:49;;;;;;;26.27;20.08;;;;;;;6.48;82.20;103027.22;5012521;28;20048;-55
2022/04/16 03:22:15;;;;;;;28.83;20.58;;;;;;;6.48;82.73;103027.22;5013505;28;20022;-54
2022/04/16 03:24:41;;;;;;;27.58;20.85;;;;;;;6.40;82.26;103022.34;5013665;28;20026;-54
2022/04/16 03:27:07;;;;;;;27.98;20.02;;;;;;;6.47;82.83;103033.44;5013679;28;20071;-54
2022/04/16 03:29:33;;;;;;;26.80;20.50;;;;;;;6.47;82.82;103041.34;5012905;28;20037;-55
2022/04/16 03:31:59;;;;;;;26.75;20.40;;;;;;;6.40;82.31;103029.41;5012866;28;20030;-54
2022/04/16 03:34:24;;;;;;;26.75;20.17;;;;;;;6.37;83.28;103029.56;5013739;28;20026;-55
2022/04/16 03:36:50;;;;;;;29.48;20.77;;;;;;;6.35;82.63;103031.44;5009603;28;20389;-55
2022/04/16 03:39:15;;;;;;;29.88;21.13;;;;;;;6.33;82.85;103037.63;5008550;28;20108;-56
2022/04/16 03:41:40;;;;;;;28.08;20.58;;;;;;;6.32;82.48;103025.38;5009709;28;20025;-54
2022/04/16 03:44:06;;;;;;;27.27;20.08;;;;;;;6.33;82.72;103028.88;5006289;28;20037;-56
2022/04/16 03:46:32;;;;;;;28.15;21.88;;;;;;;6.30;82.74;103023.75;5009157;28;20033;-56
2022/04/16 03:48:59;;;;;;;29.02;21.13;;;;;;;6.28;83.45;103026.47;5009881;28;20418;-55
2022/04/16 03:51:26;;;;;;;29.25;21.35;;;;;;;6.28;83.41;103030.91;5012333;28;20416;-55
2022/04/16 03:53:51;;;;;;;29.23;21.50;;;;;;;6.28;83.72;103025.63;5011813;28;20029;-54
2022/04/16 04:01:58;;;;;;;30.17;21.23;;;;;;;6.23;83.19;103032.91;4994759;28;20053;-52
2022/04/16 04:04:24;;;;;;;29.95;21.55;;;;;;;6.25;83.50;103034.53;5011954;28;20030;-55
2022/04/16 04:06:49;;;;;;;29.38;21.95;;;;;;;6.21;83.33;103040.06;5009663;28;20038;-55
2022/04/16 04:09:14;;;;;;;30.05;22.23;;;;;;;6.23;84.21;103039.03;5009979;28;20546;-55
2022/04/16 04:11:40;;;;;;;30.48;22.02;;;;;;;6.20;83.89;103039.19;5012313;28;20030;-55
2022/04/16 04:14:05;;;;;;;30.38;21.75;;;;;;;6.18;84.34;103041.91;5012512;28;20041;-55
2022/04/16 04:16:30;;;;;;;29.05;21.65;;;;;;;6.15;83.76;103042.06;5010983;28;21633;-55
2022/04/16 04:18:55;;;;;;;31.40;22.65;;;;;;;6.14;84.45;103050.03;5011628;28;20077;-55
2022/04/16 04:21:21;;;;;;;31.08;22.00;;;;;;;6.12;83.76;103046.63;5010674;28;20033;-54
2022/04/16 04:23:46;;;;;;;34.08;22.13;;;;;;;6.10;84.22;103048.47;5010897;28;20026;-56
2022/04/16 04:26:12;;;;;;;29.30;22.60;;;;;;;6.05;84.04;103052.22;5012570;28;20037;-54
2022/04/16 04:28:37;;;;;;;32.83;22.52;;;;;;;6.04;84.82;103055.78;5017198;28;20026;-53
2022/04/16 04:31:02;;;;;;;29.27;22.10;;;;;;;6.01;84.78;103058.53;5012362;28;20392;-52
2022/04/16 04:33:28;;;;;;;31.15;22.50;;;;;;;6.01;84.70;103058.53;5009974;28;20115;-55
2022/04/16 04:35:53;;;;;;;31.17;22.67;;;;;;;6.04;84.55;103061.06;5011265;28;20480;-55
2022/04/16 04:38:19;;;;;;;30.02;23.15;;;;;;;5.95;84.78;103058.84;5011567;28;20026;-54
2022/04/16 04:40:44;;;;;;;31.63;23.00;;;;;;;5.97;84.48;103058.75;5010323;28;20112;-54
2022/04/16 04:43:09;;;;;;;32.88;23.05;;;;;;;5.97;84.86;103064.88;5011683;28;20040;-55
2022/04/16 04:45:34;;;;;;;32.22;23.50;;;;;;;5.95;84.42;103069.38;5010991;28;20025;-55
2022/04/16 04:48:00;;;;;;;32.08;22.73;;;;;;;5.98;84.62;103077.13;5007256;28;20030;-56
2022/04/16 04:50:25;;;;;;;32.95;24.08;;;;;;;5.98;85.18;103073.63;5011104;28;20042;-51
2022/04/16 04:52:50;;;;;;;34.10;23.75;;;;;;;5.92;85.45;103072.13;5011092;28;20071;-54
2022/04/16 04:55:15;;;;;;;34.50;23.92;;;;;;;5.85;85.05;103076.00;5012227;28;20061;-55
2022/04/16 04:57:42;;;;;;;29.75;23.70;;;;;;;5.85;85.58;103076.00;5003241;28;20041;-52
2022/04/16 05:00:09;;;;;;;32.22;24.40;;;;;;;5.84;85.68;103084.84;5009277;28;20065;-55
2022/04/16 05:02:42;;;;;;;37.25;24.73;;;;;;;5.82;86.14;103086.69;5011848;28;20350;-54
2022/04/16 05:05:07;;;;;;;30.13;23.83;;;;;;;5.89;85.84;103080.19;5011918;28;20164;-54
2022/04/16 05:07:33;;;;;;;32.63;24.60;;;;;;;5.90;85.75;103084.53;5010676;28;20480;-54
2022/04/16 05:09:58;;;;;;;33.03;24.58;;;;;;;5.89;85.52;103083.69;5009234;28;20036;-55
2022/04/16 05:12:23;;;;;;;33.75;25.63;;;;;;;5.87;85.70;103095.25;5009409;28;20030;-52
2022/04/16 05:14:49;;;;;;;35.40;25.77;;;;;;;5.88;85.59;103092.50;5024633;28;20105;-54
2022/04/16 05:17:14;;;;;;;34.95;25.77;;;;;;;5.87;86.33;103095.25;5016819;28;20087;-54
2022/04/16 05:19:39;;;;;;;35.58;26.65;;;;;;;5.89;85.86;103091.59;5016174;28;20038;-54
2022/04/16 05:22:04;;;;;;;36.35;26.30;;;;;;;5.89;85.90;103094.25;5018415;28;20029;-53
2022/04/16 05:24:30;;;;;;;34.95;26.27;;;;;;;5.94;86.66;103101.91;5015921;28;20045;-54
2022/04/16 05:26:55;;;;;;;36.15;26.15;;;;;;;5.95;86.51;103100.97;5015399;28;20037;-54
2022/04/16 05:29:21;;;;;;;34.38;26.17;;;;;;;5.99;86.26;103102.53;5013608;28;20029;-54
2022/04/16 05:31:47;;;;;;;36.05;26.90;;;;;;;5.93;86.76;103106.31;5016745;28;20064;-53
2022/04/16 05:34:18;;;;;;;36.13;26.92;;;;;;;5.91;86.41;103113.44;5018309;28;20058;-58
2022/04/16 05:36:44;;;;;;;35.70;26.08;;;;;;;6.00;86.80;103112.13;5020429;28;20026;-58
2022/04/16 05:39:09;;;;;;;35.08;26.67;;;;;;;5.99;87.26;103115.72;5017035;28;20038;-58
2022/04/16 05:41:34;;;;;;;36.83;27.05;;;;;;;6.00;86.49;103101.59;5016379;28;20022;-59
2022/04/16 05:44:01;;;;;;;35.00;25.83;;;;;;;6.05;86.85;103104.91;5020133;28;20419;-55
2022/04/16 05:46:26;;;;;;;34.50;26.23;;;;;;;6.07;87.04;103102.16;5021339;28;20049;-53
2022/04/16 05:48:52;;;;;;;34.38;26.25;;;;;;;6.10;86.78;103101.16;5015945;28;20472;-55
2022/04/16 05:51:18;;;;;;;37.08;27.25;;;;;;;6.16;87.37;103111.41;5015742;28;20026;-55
2022/04/16 05:53:44;;;;;;;35.10;26.27;;;;;;;6.18;86.86;103110.41;5019329;28;20579;-54
2022/04/16 05:56:10;;;;;;;35.45;27.83;;;;;;;6.23;87.23;103118.09;5019622;28;20045;-54
2022/04/16 05:58:36;;;;;;;36.38;27.35;;;;;;;6.25;87.13;103121.50;5021460;28;20034;-54
2022/04/16 06:01:02;;;;;;;37.40;27.98;;;;;;;6.27;87.15;103119.63;5015455;28;20089;-54
2022/04/16 06:03:28;;;;;;;35.67;27.23;;;;;;;6.32;86.99;103133.44;5017556;28;20034;-54
2022/04/16 06:05:54;;;;;;;36.08;27.33;;;;;;;6.39;87.49;103133.97;5015565;28;20105;-58
2022/04/16 06:08:20;;;;;;;41.17;28.27;;;;;;;6.43;86.97;103142.59;5022483;28;20042;-52
2022/04/16 06:10:45;;;;;;;38.67;28.05;;;;;;;6.49;86.68;103151.94;5019317;28;20034;-51
2022/04/16 06:13:11;;;;;;;36.10;27.65;;;;;;;6.50;87.03;103145.78;5018159;28;20030;-54
2022/04/16 06:15:40;;;;;;;35.92;27.88;;;;;;;6.49;87.33;103144.91;5031440;28;20045;-52
2022/04/16 06:18:05;;;;;;;37.92;27.98;;;;;;;6.61;86.94;103147.88;5012533;28;20046;-54
2022/04/16 06:20:30;;;;;;;38.83;29.20;;;;;;;6.67;87.04;103158.09;5014813;28;20076;-58
2022/04/16 06:22:55;;;;;;;36.53;28.90;;;;;;;6.75;86.61;103149.78;5010863;28;20038;-59
2022/04/16 06:25:22;;;;;;;40.65;29.27;;;;;;;6.80;87.19;103153.88;5014828;28;20038;-58
2022/04/16 06:27:48;;;;;;;39.42;29.05;;;;;;;6.87;86.85;103154.44;5015896;28;20037;-58
2022/04/16 06:30:13;;;;;;;44.17;30.15;;;;;;;6.88;87.45;103150.00;5014010;28;20026;-59
2022/04/16 06:32:39;;;;;;;39.95;29.88;;;;;;;7.00;87.38;103154.63;5015107;28;20033;-58
2022/04/16 06:35:05;;;;;;;41.47;30.02;;;;;;;7.03;87.20;103154.47;5012876;28;20041;-59
2022/04/16 06:37:37;;;;;;;40.65;29.38;;;;;;;7.08;87.07;103157.72;5015227;28;20052;-59
2022/04/16 06:40:03;;;;;;;40.63;30.23;;;;;;;7.09;87.50;103162.06;5014294;28;20489;-58
2022/04/16 06:42:28;;;;;;;41.95;30.17;;;;;;;7.11;86.98;103156.72;5014552;28;20030;-58
2022/04/16 06:44:54;;;;;;;38.75;29.42;;;;;;;7.18;87.01;103167.78;5014179;28;20435;-59
2022/04/16 06:47:19;;;;;;;39.42;29.73;;;;;;;7.26;87.14;103160.34;5014095;28;20038;-59
2022/04/16 06:49:44;;;;;;;40.67;31.40;;;;;;;7.36;87.28;103161.50;5022243;28;20025;-58
2022/04/16 06:52:09;;;;;;;41.08;29.60;;;;;;;7.44;87.18;103157.63;5016009;28;20117;-58
2022/04/16 06:54:36;;;;;;;40.58;30.73;;;;;;;7.54;86.92;103164.09;5014904;28;20459;-58
2022/04/16 06:57:01;;;;;;;40.78;30.60;;;;;;;7.66;87.22;103163.41;5022424;28;20117;-59
2022/04/16 06:59:26;;;;;;;41.45;30.63;;;;;;;7.78;86.89;103163.69;5011208;28;20101;-59
2022/04/16 07:01:52;;;;;;;43.17;31.13;;;;;;;7.85;86.74;103157.09;5012173;28;20913;-58
2022/04/16 07:04:17;;;;;;;43.85;30.27;;;;;;;7.93;86.88;103162.84;5004524;28;20076;-59
2022/04/16 07:06:42;;;;;;;40.58;29.75;;;;;;;8.03;86.51;103157.00;5013213;28;20032;-59
2022/04/16 07:09:08;;;;;;;40.63;29.55;;;;;;;8.13;86.02;103167.91;5013368;28;20049;-58
2022/04/16 07:11:33;;;;;;;38.70;28.90;;;;;;;8.25;85.30;103163.72;5009598;28;20030;-59
2022/04/16 07:13:59;;;;;;;39.75;28.65;;;;;;;8.30;85.53;103161.66;5009327;28;20119;-59
2022/04/16 07:16:24;;;;;;;41.08;30.42;;;;;;;8.40;85.34;103164.63;5016563;28;20034;-59
2022/04/16 07:18:49;;;;;;;39.95;29.15;;;;;;;8.47;84.21;103163.31;5009980;28;20045;-60
2022/04/16 07:21:14;;;;;;;39.92;28.38;;;;;;;8.54;83.87;103169.97;5000462;28;20034;-59
2022/04/16 07:23:40;;;;;;;37.65;28.30;;;;;;;8.61;83.42;103171.34;5001904;28;20056;-58
2022/04/16 07:26:05;;;;;;;39.50;27.50;;;;;;;8.68;83.11;103169.16;5013860;28;20029;-58
2022/04/16 07:28:30;;;;;;;37.67;28.02;;;;;;;8.79;83.28;103170.31;5012866;28;20512;-59
2022/04/16 07:30:55;;;;;;;39.60;27.13;;;;;;;8.85;82.33;103169.94;5012422;28;20060;-59
2022/04/16 07:33:21;;;;;;;37.53;27.00;;;;;;;8.94;83.15;103171.19;5014322;28;20034;-59
2022/04/16 07:35:47;;;;;;;37.20;26.50;;;;;;;9.01;81.97;103168.09;5011121;28;20053;-59
2022/04/16 07:38:12;;;;;;;39.97;27.60;;;;;;;9.03;81.38;103170.63;5004269;28;20083;-58
2022/04/16 07:40:38;;;;;;;37.10;26.33;;;;;;;9.12;81.06;103179.78;5011243;28;20037;-59
2022/04/16 07:43:03;;;;;;;37.17;26.48;;;;;;;9.13;81.27;103181.53;5016633;28;20034;-54
2022/04/16 07:45:29;;;;;;;35.10;25.33;;;;;;;9.19;81.19;103183.78;5010466;28;20133;-54
2022/04/16 07:47:54;;;;;;;36.58;26.35;;;;;;;9.29;80.91;103181.41;5014569;28;20037;-53
2022/04/16 07:50:20;;;;;;;35.28;26.08;;;;;;;9.35;80.16;103185.47;5018219;28;20049;-55
2022/04/16 07:52:46;;;;;;;34.60;25.17;;;;;;;9.37;80.05;103178.31;5014370;28;20029;-55
2022/04/16 07:55:12;;;;;;;34.83;25.35;;;;;;;9.44;79.74;103178.75;5026504;28;20048;-54
2022/04/16 07:57:38;;;;;;;33.05;25.17;;;;;;;9.51;79.38;103169.47;5016357;28;20025;-56
2022/04/16 08:00:06;;;;;;;35.97;25.90;;;;;;;9.55;79.48;103177.13;5015019;28;20041;-56
2022/04/16 08:02:31;;;;;;;35.85;25.77;;;;;;;9.66;79.66;103180.88;5019292;28;20034;-53
2022/04/16 08:04:56;;;;;;;31.65;24.13;;;;;;;9.72;78.92;103172.53;5013162;28;20037;-55
2022/04/16 08:07:21;;;;;;;36.47;25.50;;;;;;;9.79;78.73;103183.63;5012838;28;20059;-55
2022/04/16 08:09:47;;;;;;;33.65;23.88;;;;;;;9.82;78.30;103186.91;5012142;28;20108;-55
2022/04/16 08:12:12;;;;;;;33.35;24.63;;;;;;;9.89;77.53;103179.44;5000312;28;20051;-53
2022/04/16 08:14:37;;;;;;;34.58;25.02;;;;;;;9.91;77.87;103185.47;5010833;28;20449;-55
2022/04/16 08:17:03;;;;;;;33.40;24.77;;;;;;;9.95;77.86;103172.88;4999287;28;20092;-54
2022/04/16 08:19:29;;;;;;;31.30;23.38;;;;;;;10.05;78.15;103173.97;5011702;28;20513;-55
2022/04/16 08:21:55;;;;;;;32.28;23.35;;;;;;;10.13;76.31;103172.63;5010969;28;20451;-54
2022/04/16 08:24:39;;;;;;;31.00;23.52;;;;;;;10.22;75.60;103172.84;5013250;28;20049;-56
2022/04/16 08:27:06;;;;;;;33.08;22.85;;;;;;;10.25;75.89;103182.41;5013095;28;20052;-55
2022/04/16 08:29:32;;;;;;;31.73;23.05;;;;;;;10.33;75.88;103180.13;5013782;28;20029;-56
2022/04/16 08:31:57;;;;;;;29.42;21.58;;;;;;;10.39;75.16;103180.63;5013537;28;20042;-56
2022/04/16 08:34:22;;;;;;;31.15;22.17;;;;;;;10.48;74.28;103185.38;5016481;28;20064;-56
2022/04/16 08:36:48;;;;;;;29.27;21.77;;;;;;;10.48;74.76;103185.38;5018194;28;20113;-60
2022/04/16 08:39:15;;;;;;;28.00;21.67;;;;;;;10.55;75.21;103189.31;5027971;28;20069;-55
2022/04/16 08:41:40;;;;;;;27.10;20.67;;;;;;;10.61;74.70;103191.53;5006367;28;20030;-59
2022/04/16 08:44:06;;;;;;;27.83;21.35;;;;;;;10.68;74.13;103180.50;5007850;28;20088;-58
2022/04/16 08:46:32;;;;;;;28.40;21.10;;;;;;;10.74;73.49;103185.41;5010003;28;20026;-59
2022/04/16 08:48:59;;;;;;;29.25;20.27;;;;;;;10.81;72.59;103191.16;5019042;28;20049;-57
2022/04/16 08:51:28;;;;;;;28.10;19.95;;;;;;;10.89;72.92;103187.03;5007554;28;20030;-59
2022/04/16 08:53:54;;;;;;;26.25;19.02;;;;;;;10.98;73.51;103197.94;5004565;28;20679;-54
2022/04/16 08:56:19;;;;;;;26.30;18.73;;;;;;;11.01;71.42;103192.44;5007184;28;20052;-54
2022/04/16 08:58:45;;;;;;;23.73;18.10;;;;;;;11.02;71.06;103199.44;5010526;28;20041;-56
2022/04/16 09:01:11;;;;;;;27.38;19.13;;;;;;;11.09;70.22;103192.75;5011401;28;20481;-54
2022/04/16 09:03:38;;;;;;;26.25;18.88;;;;;;;11.12;70.33;103184.59;5011487;28;20029;-56
2022/04/16 09:06:04;;;;;;;24.67;17.33;;;;;;;11.26;70.52;103185.41;5011052;28;20342;-54
2022/04/16 09:08:31;;;;;;;24.83;16.25;;;;;;;11.37;69.25;103188.16;5013456;28;20026;-55
2022/04/16 09:11:09;;;;;;;23.45;16.88;;;;;;;11.40;69.27;103187.94;5012169;28;20030;-56
2022/04/16 09:13:34;;;;;;;23.88;17.02;;;;;;;11.48;67.71;103173.25;5013393;28;20393;-57
2022/04/16 09:16:04;;;;;;;23.13;17.27;;;;;;;11.48;68.05;103179.41;5012384;28;20045;-56
2022/04/16 09:18:29;;;;;;;23.25;16.40;;;;;;;11.59;67.17;103191.91;5015155;28;20401;-55
2022/04/16 09:20:55;;;;;;;21.98;16.13;;;;;;;11.65;68.36;103186.16;5009701;28;20040;-55
2022/04/16 09:23:22;;;;;;;23.52;16.00;;;;;;;11.78;66.74;103187.94;5011168;28;20050;-55
2022/04/16 09:25:49;;;;;;;19.30;13.68;;;;;;;11.83;64.25;103188.44;5011035;28;20034;-54
2022/04/16 09:28:15;;;;;;;19.52;13.55;;;;;;;11.88;64.23;103183.66;5005710;28;20104;-56
2022/04/16 09:30:50;;;;;;;19.58;13.32;;;;;;;11.90;63.91;103178.22;5010205;28;20066;-53
2022/04/16 09:33:15;;;;;;;18.50;13.02;;;;;;;11.98;64.35;103176.69;5002165;28;20030;-56
2022/04/16 09:35:41;;;;;;;18.17;12.85;;;;;;;12.16;63.07;103184.31;5013571;28;20461;-53
2022/04/16 09:38:09;;;;;;;19.75;12.00;;;;;;;12.33;62.21;103172.41;5013138;28;20041;-55
2022/04/16 09:40:35;;;;;;;17.65;12.15;;;;;;;12.40;60.75;103178.13;5011629;28;20494;-55
2022/04/16 09:43:04;;;;;;;18.27;12.43;;;;;;;12.37;60.70;103173.00;5010861;28;20368;-55
2022/04/16 09:45:30;;;;;;;18.40;13.02;;;;;;;12.32;61.64;103172.50;5000624;28;20380;-55
2022/04/16 09:47:56;;;;;;;20.10;12.80;;;;;;;12.31;61.81;103176.13;5002442;28;20038;-55
2022/04/16 09:50:23;;;;;;;16.85;11.63;;;;;;;12.20;60.86;103164.47;4997841;28;20030;-55
2022/04/16 09:52:56;;;;;;;15.13;11.07;;;;;;;12.18;61.11;103162.94;4996430;28;20070;-55
2022/04/16 09:55:26;;;;;;;14.90;10.80;;;;;;;12.11;60.48;103165.19;5004349;28;20038;-54
2022/04/16 09:57:59;;;;;;;15.45;10.82;;;;;;;12.04;60.73;103177.25;5012141;28;20061;-56
2022/04/16 10:00:29;;;;;;;12.73;8.68;;;;;;;12.16;60.43;103173.69;5006298;28;20034;-54
2022/04/16 10:02:55;;;;;;;15.07;10.38;;;;;;;12.37;59.75;103168.56;5014357;28;20080;-54
2022/04/16 10:05:21;;;;;;;15.43;10.10;;;;;;;12.38;59.14;103166.72;5011963;28;20034;-56
2022/04/16 10:07:47;;;;;;;12.65;8.90;;;;;;;12.46;59.00;103158.16;5015499;28;20472;-57
2022/04/16 10:10:17;;;;;;;12.65;8.93;;;;;;;12.54;57.42;103160.25;5012256;28;20030;-54
2022/04/16 10:13:03;;;;;;;10.32;7.57;;;;;;;12.74;57.21;103154.22;5017687;28;20076;-56
2022/04/16 10:15:54;;;;;;;9.98;7.35;;;;;;;12.77;57.17;103156.66;5014520;28;20504;-56
2022/04/16 10:18:20;;;;;;;10.50;7.32;;;;;;;12.83;54.99;103151.81;5015757;28;20124;-55
2022/04/16 10:20:57;;;;;;;13.80;9.20;;;;;;;12.89;57.53;103143.38;5012851;28;20113;-56
2022/04/16 10:23:38;;;;;;;12.02;8.73;;;;;;;12.96;56.44;103155.22;5013799;28;20026;-56
2022/04/16 10:26:23;;;;;;;12.10;8.70;;;;;;;13.09;56.69;103155.13;5014417;28;20069;-55
2022/04/16 10:28:53;;;;;;;10.65;7.45;;;;;;;13.18;55.21;103151.69;5005815;28;20040;-54
2022/04/16 10:31:27;;;;;;;9.13;6.40;;;;;;;13.38;53.37;103159.91;5014395;28;20431;-55
2022/04/16 10:34:11;;;;;;;11.00;6.38;;;;;;;13.18;52.44;103154.38;5016099;28;20041;-54
2022/04/16 10:36:41;;;;;;;8.23;6.65;;;;;;;13.36;53.16;103155.72;5014782;28;20044;-56
2022/04/16 10:39:17;;;;;;;10.15;7.30;;;;;;;13.56;54.25;103168.28;5016148;28;20105;-54
2022/04/16 10:41:54;;;;;;;9.05;5.72;;;;;;;13.62;52.76;103152.78;5005651;28;20038;-56
2022/04/16 10:44:19;;;;;;;6.35;5.40;;;;;;;13.69;51.25;103151.31;5008213;28;20495;-55
2022/04/16 10:46:46;;;;;;;9.68;6.35;;;;;;;13.75;50.87;103161.47;5008164;28;20033;-55
2022/04/16 10:49:16;;;;;;;7.10;5.82;;;;;;;13.77;50.58;103151.50;5006128;28;20034;-54
2022/04/16 10:51:42;;;;;;;5.90;4.93;;;;;;;13.83;49.63;103147.50;5014475;28;20334;-55
2022/04/16 10:54:14;;;;;;;6.60;5.18;;;;;;;13.93;49.75;103152.94;5014243;28;20110;-56
2022/04/16 10:56:44;;;;;;;5.90;5.30;;;;;;;13.94;50.16;103150.13;5003647;28;20045;-56
2022/04/16 10:59:11;;;;;;;7.85;5.90;;;;;;;14.03;48.75;103164.53;5006136;28;20056;-56
2022/04/16 11:01:36;;;;;;;8.02;6.03;;;;;;;14.04;49.38;103149.34;5003289;28;20058;-56
2022/04/16 11:04:13;;;;;;;7.80;5.32;;;;;;;13.98;49.08;103145.38;5000805;28;20034;-56
2022/04/16 11:06:42;;;;;;;7.60;5.25;;;;;;;14.00;49.77;103143.44;5005363;28;20109;-56
2022/04/16 11:09:11;;;;;;;7.13;5.95;;;;;;;14.01;49.30;103147.78;5012695;28;20112;-55
2022/04/16 11:11:38;;;;;;;7.45;6.22;;;;;;;14.02;48.96;103145.97;5011304;28;20053;-56
2022/04/16 11:14:07;;;;;;;8.45;5.85;;;;;;;14.06;50.30;103145.59;5010171;28;20030;-52
2022/04/16 11:16:32;;;;;;;7.50;5.97;;;;;;;14.09;48.39;103142.69;5007975;28;20096;-56
2022/04/16 11:18:57;;;;;;;8.07;6.18;;;;;;;14.10;48.58;103146.19;5003375;28;20050;-56
2022/04/16 11:21:26;;;;;;;7.47;5.75;;;;;;;14.10;49.22;103144.38;5011795;28;20033;-55
2022/04/16 11:23:52;;;;;;;8.50;5.45;;;;;;;14.20;49.80;103138.25;5013715;28;20026;-56
2022/04/16 11:34:43;;;;;;;8.45;6.53;;;;;;;14.30;48.40;103139.16;5009055;28;20129;-57
2022/04/16 11:37:09;;;;;;;8.68;6.78;;;;;;;14.36;49.19;103135.97;5008366;28;20520;-57